sensor_id;sensor_type;location;lat;lon;timestamp;pressure;altitude;pressure_sealevel;temperature;humidity
56334;BME280;42240;53.626;55.886;2023-04-25T00:00:46;77106.56;;;-145.10;86.24
56334;BME280;42240;53.626;55.886;2023-04-25T00:02:19;77104.56;;;-145.10;86.15
56334;BME280;42240;53.626;55.886;2023-04-25T00:03:52;77108.53;;;-145.10;86.52
56334;BME280;42240;53.626;55.886;2023-04-25T00:05:26;77110.50;;;-145.10;86.00
56334;BME280;42240;53.626;55.886;2023-04-25T00:07:00;77110.50;;;-145.10;85.51
56334;BME280;42240;53.626;55.886;2023-04-25T00:08:35;77142.16;;;-145.10;85.60
56334;BME280;42240;53.626;55.886;2023-04-25T00:10:09;77126.31;;;-145.10;87.07
56334;BME280;42240;53.626;55.886;2023-04-25T00:11:44;77138.19;;;-145.10;87.72
56334;BME280;42240;53.626;55.886;2023-04-25T00:13:17;77140.16;;;-145.10;87.93
56334;BME280;42240;53.626;55.886;2023-04-25T00:14:49;77132.25;;;-145.10;87.38
56334;BME280;42240;53.626;55.886;2023-04-25T00:16:22;77140.16;;;-145.10;87.58
56334;BME280;42240;53.626;55.886;2023-04-25T00:17:56;77150.06;;;-145.10;87.49
56334;BME280;42240;53.626;55.886;2023-04-25T00:19:29;77142.16;;;-145.10;86.64
56334;BME280;42240;53.626;55.886;2023-04-25T00:21:02;77142.16;;;-145.10;86.76
56334;BME280;42240;53.626;55.886;2023-04-25T00:22:35;77157.97;;;-145.10;87.06
56334;BME280;42240;53.626;55.886;2023-04-25T00:24:10;77157.97;;;-145.10;87.17
56334;BME280;42240;53.626;55.886;2023-04-25T00:25:47;77148.09;;;-145.10;88.22
56334;BME280;42240;53.626;55.886;2023-04-25T00:27:20;77157.97;;;-145.10;88.30
56334;BME280;42240;53.626;55.886;2023-04-25T00:28:53;77152.03;;;-145.10;88.57
56334;BME280;42240;53.626;55.886;2023-04-25T00:30:26;77154.00;;;-145.10;88.84
56334;BME280;42240;53.626;55.886;2023-04-25T00:31:59;77142.16;;;-145.10;88.76
56334;BME280;42240;53.626;55.886;2023-04-25T00:33:33;77132.25;;;-145.10;89.01
56334;BME280;42240;53.626;55.886;2023-04-25T00:35:06;77140.16;;;-145.10;89.66
56334;BME280;42240;53.626;55.886;2023-04-25T00:36:39;77130.28;;;-145.10;89.36
56334;BME280;42240;53.626;55.886;2023-04-25T00:38:12;77122.38;;;-145.10;89.14
56334;BME280;42240;53.626;55.886;2023-04-25T00:39:45;77132.25;;;-145.10;89.83
56334;BME280;42240;53.626;55.886;2023-04-25T00:41:18;77124.34;;;-145.10;90.28
56334;BME280;42240;53.626;55.886;2023-04-25T00:42:52;77130.28;;;-145.10;89.80
56334;BME280;42240;53.626;55.886;2023-04-25T00:44:27;77154.00;;;-145.10;89.80
56334;BME280;42240;53.626;55.886;2023-04-25T00:46:02;77132.25;;;-145.10;90.21
56334;BME280;42240;53.626;55.886;2023-04-25T00:47:35;77118.41;;;-145.10;90.42
56334;BME280;42240;53.626;55.886;2023-04-25T00:49:08;77120.41;;;-145.10;90.50
56334;BME280;42240;53.626;55.886;2023-04-25T00:50:58;77110.50;;;-145.10;90.53
56334;BME280;42240;53.626;55.886;2023-04-25T00:52:31;77110.50;;;-145.10;90.58
56334;BME280;42240;53.626;55.886;2023-04-25T00:54:04;77104.56;;;-145.10;90.40
56334;BME280;42240;53.626;55.886;2023-04-25T00:55:38;77098.63;;;-145.10;90.17
56334;BME280;42240;53.626;55.886;2023-04-25T00:57:11;77094.69;;;-145.10;89.62
56334;BME280;42240;53.626;55.886;2023-04-25T00:58:44;77086.78;;;-145.10;89.44
56334;BME280;42240;53.626;55.886;2023-04-25T01:00:18;77106.56;;;-145.10;88.58
56334;BME280;42240;53.626;55.886;2023-04-25T01:01:52;77088.75;;;-145.10;88.60
56334;BME280;42240;53.626;55.886;2023-04-25T01:03:25;77082.81;;;-145.10;89.25
56334;BME280;42240;53.626;55.886;2023-04-25T01:05:02;77082.81;;;-145.10;89.25
56334;BME280;42240;53.626;55.886;2023-04-25T01:06:36;77070.94;;;-145.10;88.69
56334;BME280;42240;53.626;55.886;2023-04-25T01:08:09;77070.94;;;-145.10;88.04
56334;BME280;42240;53.626;55.886;2023-04-25T01:09:42;77023.50;;;-145.10;87.23
56334;BME280;42240;53.626;55.886;2023-04-25T01:11:15;76968.13;;;-145.10;86.00
56334;BME280;42240;53.626;55.886;2023-04-25T01:12:48;76912.75;;;-145.10;83.16
56334;BME280;42240;53.626;55.886;2023-04-25T01:14:22;76853.41;;;-145.10;80.81
56334;BME280;42240;53.626;55.886;2023-04-25T01:15:54;76794.09;;;-145.10;77.34
56334;BME280;42240;53.626;55.886;2023-04-25T01:17:28;76756.53;;;-145.10;73.67
56334;BME280;42240;53.626;55.886;2023-04-25T01:19:10;76703.13;;;-145.10;70.32
56334;BME280;42240;53.626;55.886;2023-04-25T01:20:47;76639.84;;;-145.10;67.55
56334;BME280;42240;53.626;55.886;2023-04-25T01:22:22;76602.28;;;-145.10;65.77
56334;BME280;42240;53.626;55.886;2023-04-25T01:23:56;76552.84;;;-145.10;61.89
56334;BME280;42240;53.626;55.886;2023-04-25T01:25:30;76489.56;;;-145.10;60.29
56334;BME280;42240;53.626;55.886;2023-04-25T01:27:04;76438.16;;;-145.10;58.23
56334;BME280;42240;53.626;55.886;2023-04-25T01:28:39;76426.28;;;-145.10;56.81
56334;BME280;42240;53.626;55.886;2023-04-25T01:30:16;76390.69;;;-145.10;56.37
56334;BME280;42240;53.626;55.886;2023-04-25T01:31:51;76331.38;;;-145.10;55.45
56334;BME280;42240;53.626;55.886;2023-04-25T01:33:24;76276.03;;;-145.10;52.87
56334;BME280;42240;53.626;55.886;2023-04-25T01:34:57;76210.78;;;-145.10;51.24
56334;BME280;42240;53.626;55.886;2023-04-25T01:36:31;76157.38;;;-145.10;50.02
56334;BME280;42240;53.626;55.886;2023-04-25T01:38:04;76107.97;;;-145.10;48.19
56334;BME280;42240;53.626;55.886;2023-04-25T01:39:37;76088.19;;;-145.10;47.05
56334;BME280;42240;53.626;55.886;2023-04-25T01:41:10;76032.84;;;-145.10;45.48
56334;BME280;42240;53.626;55.886;2023-04-25T01:42:44;75979.44;;;-145.10;45.59
56334;BME280;42240;53.626;55.886;2023-04-25T01:44:17;76011.09;;;-145.10;44.20
56334;BME280;42240;53.626;55.886;2023-04-25T01:45:50;75995.25;;;-145.10;44.19
56334;BME280;42240;53.626;55.886;2023-04-25T01:47:24;75932.00;;;-145.10;43.50
56334;BME280;42240;53.626;55.886;2023-04-25T01:48:57;75870.72;;;-145.10;42.63
56334;BME280;42240;53.626;55.886;2023-04-25T01:50:30;75837.09;;;-145.10;41.03
56334;BME280;42240;53.626;55.886;2023-04-25T01:52:04;75890.47;;;-145.10;41.03
56334;BME280;42240;53.626;55.886;2023-04-25T01:53:38;75967.59;;;-145.10;41.25
56334;BME280;42240;53.626;55.886;2023-04-25T01:55:11;76013.06;;;-145.10;41.68
56334;BME280;42240;53.626;55.886;2023-04-25T01:56:51;75983.41;;;-145.10;41.76
56334;BME280;42240;53.626;55.886;2023-04-25T01:58:26;75918.16;;;-145.10;41.71
56334;BME280;42240;53.626;55.886;2023-04-25T02:00:20;75900.38;;;-145.10;41.05
56334;BME280;42240;53.626;55.886;2023-04-25T02:01:53;75916.19;;;-145.10;40.82
56334;BME280;42240;53.626;55.886;2023-04-25T02:03:34;75829.19;;;-145.10;40.44
56334;BME280;42240;53.626;55.886;2023-04-25T02:05:10;75771.84;;;-145.10;39.96
56334;BME280;42240;53.626;55.886;2023-04-25T02:06:45;75720.47;;;-145.10;39.21
56334;BME280;42240;53.626;55.886;2023-04-25T02:08:19;75682.91;;;-145.10;38.77
56334;BME280;42240;53.626;55.886;2023-04-25T02:09:52;75680.91;;;-145.10;38.24
56334;BME280;42240;53.626;55.886;2023-04-25T02:11:27;75639.41;;;-145.10;38.07
56334;BME280;42240;53.626;55.886;2023-04-25T02:13:38;75591.97;;;-145.10;37.74
56334;BME280;42240;53.626;55.886;2023-04-25T02:15:40;75619.63;;;-145.10;37.32
56334;BME280;42240;53.626;55.886;2023-04-25T02:17:21;75641.38;;;-145.10;37.55
56334;BME280;42240;53.626;55.886;2023-04-25T02:18:56;75607.78;;;-145.10;37.38
56334;BME280;42240;53.626;55.886;2023-04-25T02:20:30;75588.00;;;-145.10;37.25
56334;BME280;42240;53.626;55.886;2023-04-25T02:22:04;75621.59;;;-145.10;37.33
56334;BME280;42240;53.626;55.886;2023-04-25T02:23:36;75718.47;;;-145.10;37.71
56334;BME280;42240;53.626;55.886;2023-04-25T02:25:10;75734.28;;;-145.10;38.10
56334;BME280;42240;53.626;55.886;2023-04-25T02:26:44;75758.03;;;-145.10;37.74
56334;BME280;42240;53.626;55.886;2023-04-25T02:28:17;75657.19;;;-145.10;38.02
56334;BME280;42240;53.626;55.886;2023-04-25T02:29:50;75591.97;;;-145.10;37.27
56334;BME280;42240;53.626;55.886;2023-04-25T02:31:23;75694.75;;;-145.10;37.51
56334;BME280;42240;53.626;55.886;2023-04-25T02:32:56;75589.97;;;-145.10;37.12
56334;BME280;42240;53.626;55.886;2023-04-25T02:34:29;75552.41;;;-145.10;36.82
56334;BME280;42240;53.626;55.886;2023-04-25T02:36:05;75568.22;;;-145.10;36.22
56334;BME280;42240;53.626;55.886;2023-04-25T02:37:40;75597.88;;;-145.10;36.02
56334;BME280;42240;53.626;55.886;2023-04-25T02:39:13;75617.66;;;-145.10;35.97
56334;BME280;42240;53.626;55.886;2023-04-25T02:40:46;75586.03;;;-145.10;35.71
56334;BME280;42240;53.626;55.886;2023-04-25T02:42:19;75645.34;;;-145.10;35.52
56334;BME280;42240;53.626;55.886;2023-04-25T02:43:52;75558.34;;;-145.10;35.37
56334;BME280;42240;53.626;55.886;2023-04-25T02:45:25;75582.06;;;-145.10;35.87
56334;BME280;42240;53.626;55.886;2023-04-25T02:46:58;75475.31;;;-145.10;35.16
56334;BME280;42240;53.626;55.886;2023-04-25T02:48:31;75497.06;;;-145.10;34.80
56334;BME280;42240;53.626;55.886;2023-04-25T02:50:05;75404.16;;;-145.10;34.30
56334;BME280;42240;53.626;55.886;2023-04-25T02:51:38;75461.47;;;-145.10;34.83
56334;BME280;42240;53.626;55.886;2023-04-25T02:53:11;75437.75;;;-145.10;34.46
56334;BME280;42240;53.626;55.886;2023-04-25T02:54:50;75346.81;;;-145.10;33.93
56334;BME280;42240;53.626;55.886;2023-04-25T02:56:23;75255.91;;;-145.10;33.21
56334;BME280;42240;53.626;55.886;2023-04-25T02:57:58;75204.50;;;-145.10;33.13
56334;BME280;42240;53.626;55.886;2023-04-25T02:59:48;75259.84;;;-145.10;32.54
56334;BME280;42240;53.626;55.886;2023-04-25T03:01:21;75283.56;;;-145.10;33.00
56334;BME280;42240;53.626;55.886;2023-04-25T03:02:54;75291.47;;;-145.10;32.58
56334;BME280;42240;53.626;55.886;2023-04-25T03:04:28;75287.53;;;-145.10;32.83
56334;BME280;42240;53.626;55.886;2023-04-25T03:06:02;75327.06;;;-145.10;32.38
56334;BME280;42240;53.626;55.886;2023-04-25T03:07:37;75449.63;;;-145.10;32.87
56334;BME280;42240;53.626;55.886;2023-04-25T03:09:14;75429.84;;;-145.10;33.16
56334;BME280;42240;53.626;55.886;2023-04-25T03:10:48;75267.75;;;-145.10;33.11
56334;BME280;42240;53.626;55.886;2023-04-25T03:12:23;75242.06;;;-145.10;32.26
56334;BME280;42240;53.626;55.886;2023-04-25T03:13:56;75321.13;;;-145.10;32.34
56334;BME280;42240;53.626;55.886;2023-04-25T03:15:30;75291.47;;;-145.10;32.81
56334;BME280;42240;53.626;55.886;2023-04-25T03:17:03;75259.84;;;-145.10;32.27
56334;BME280;42240;53.626;55.886;2023-04-25T03:18:36;75145.19;;;-145.10;31.69
56334;BME280;42240;53.626;55.886;2023-04-25T03:20:10;75180.78;;;-145.10;31.84
56334;BME280;42240;53.626;55.886;2023-04-25T03:21:44;75157.06;;;-145.10;31.87
56334;BME280;42240;53.626;55.886;2023-04-25T03:23:17;75238.09;;;-145.10;32.07
56334;BME280;42240;53.626;55.886;2023-04-25T03:24:51;75184.72;;;-145.10;32.09
56334;BME280;42240;53.626;55.886;2023-04-25T03:26:24;75210.44;;;-145.10;31.97
56334;BME280;42240;53.626;55.886;2023-04-25T03:27:58;75127.41;;;-145.10;31.69
56334;BME280;42240;53.626;55.886;2023-04-25T03:29:31;75123.47;;;-145.10;31.77
56334;BME280;42240;53.626;55.886;2023-04-25T03:31:07;74979.16;;;-145.10;31.20
56334;BME280;42240;53.626;55.886;2023-04-25T03:32:41;74991.03;;;-145.10;30.72
56334;BME280;42240;53.626;55.886;2023-04-25T03:34:14;75062.19;;;-145.10;30.60
56334;BME280;42240;53.626;55.886;2023-04-25T03:35:48;75115.56;;;-145.10;31.11
56334;BME280;42240;53.626;55.886;2023-04-25T03:37:23;75018.69;;;-145.10;30.68
56334;BME280;42240;53.626;55.886;2023-04-25T03:38:56;75101.72;;;-145.10;30.96
56334;BME280;42240;53.626;55.886;2023-04-25T03:40:29;75030.56;;;-145.10;30.66
56334;BME280;42240;53.626;55.886;2023-04-25T03:42:17;75066.13;;;-145.10;30.26
56334;BME280;42240;53.626;55.886;2023-04-25T03:43:51;75147.19;;;-145.10;31.04
56334;BME280;42240;53.626;55.886;2023-04-25T03:45:25;74921.84;;;-145.10;30.04
56334;BME280;42240;53.626;55.886;2023-04-25T03:46:58;74908.00;;;-145.10;29.28
56334;BME280;42240;53.626;55.886;2023-04-25T03:48:32;74876.38;;;-145.10;29.67
56334;BME280;42240;53.626;55.886;2023-04-25T03:50:05;74864.53;;;-145.10;29.37
56334;BME280;42240;53.626;55.886;2023-04-25T03:51:38;74844.75;;;-145.10;29.40
56334;BME280;42240;53.626;55.886;2023-04-25T03:53:12;74860.56;;;-145.10;29.51
56334;BME280;42240;53.626;55.886;2023-04-25T03:55:05;74825.00;;;-145.10;29.28
56334;BME280;42240;53.626;55.886;2023-04-25T03:56:38;74653.03;;;-145.10;28.69
56334;BME280;42240;53.626;55.886;2023-04-25T03:58:21;74753.84;;;-145.10;28.43
56334;BME280;42240;53.626;55.886;2023-04-25T03:59:55;74825.00;;;-145.10;29.20
56334;BME280;42240;53.626;55.886;2023-04-25T04:01:28;74811.16;;;-145.10;28.80
56334;BME280;42240;53.626;55.886;2023-04-25T04:03:02;74805.22;;;-145.10;28.92
56334;BME280;42240;53.626;55.886;2023-04-25T04:04:36;74913.94;;;-145.10;29.35
56334;BME280;42240;53.626;55.886;2023-04-25T04:06:11;74963.34;;;-145.10;29.25
56334;BME280;42240;53.626;55.886;2023-04-25T04:07:46;74991.03;;;-145.10;29.77
56334;BME280;42240;53.626;55.886;2023-04-25T04:09:21;74793.38;;;-145.10;29.22
56334;BME280;42240;53.626;55.886;2023-04-25T04:10:55;74860.56;;;-145.10;28.92
56334;BME280;42240;53.626;55.886;2023-04-25T04:12:28;74745.94;;;-145.10;28.79
56334;BME280;42240;53.626;55.886;2023-04-25T04:14:01;74747.91;;;-145.10;28.57
56334;BME280;42240;53.626;55.886;2023-04-25T04:15:35;74848.72;;;-145.10;28.75
56334;BME280;42240;53.626;55.886;2023-04-25T04:17:08;74838.81;;;-145.10;28.96
56334;BME280;42240;53.626;55.886;2023-04-25T04:18:42;74949.50;;;-145.10;29.06
56334;BME280;42240;53.626;55.886;2023-04-25T04:20:16;74959.41;;;-145.10;29.52
56334;BME280;42240;53.626;55.886;2023-04-25T04:21:49;75111.59;;;-145.10;29.52
56334;BME280;42240;53.626;55.886;2023-04-25T04:23:22;75176.81;;;-145.10;30.15
56334;BME280;42240;53.626;55.886;2023-04-25T04:24:56;75206.47;;;-145.10;30.34
56334;BME280;42240;53.626;55.886;2023-04-25T04:26:55;75099.75;;;-145.10;29.99
56334;BME280;42240;53.626;55.886;2023-04-25T04:28:42;75101.72;;;-145.10;29.83
56334;BME280;42240;53.626;55.886;2023-04-25T04:30:36;74983.13;;;-145.10;29.61
56334;BME280;42240;53.626;55.886;2023-04-25T04:32:13;74836.84;;;-145.10;29.26
56334;BME280;42240;53.626;55.886;2023-04-25T04:33:47;74876.38;;;-145.10;29.05
56334;BME280;42240;53.626;55.886;2023-04-25T04:35:22;74801.28;;;-145.10;29.10
56334;BME280;42240;53.626;55.886;2023-04-25T04:36:57;74645.13;;;-145.10;28.25
56334;BME280;42240;53.626;55.886;2023-04-25T04:38:30;74789.41;;;-145.10;28.34
56334;BME280;42240;53.626;55.886;2023-04-25T04:40:07;74793.38;;;-145.10;28.50
56334;BME280;42240;53.626;55.886;2023-04-25T04:42:11;74939.63;;;-145.10;29.07
56334;BME280;42240;53.626;55.886;2023-04-25T04:44:04;74949.50;;;-145.10;29.13
56334;BME280;42240;53.626;55.886;2023-04-25T04:45:47;74909.97;;;-145.10;29.37
56334;BME280;42240;53.626;55.886;2023-04-25T04:47:36;75006.84;;;-145.10;29.52
56334;BME280;42240;53.626;55.886;2023-04-25T04:49:36;74888.25;;;-145.10;29.02
56334;BME280;42240;53.626;55.886;2023-04-25T04:51:27;74846.72;;;-145.10;28.86
56334;BME280;42240;53.626;55.886;2023-04-25T04:53:14;74771.63;;;-145.10;28.98
56334;BME280;42240;53.626;55.886;2023-04-25T04:55:09;74850.69;;;-145.10;28.65
56334;BME280;42240;53.626;55.886;2023-04-25T04:57:09;74815.09;;;-145.10;28.80
56334;BME280;42240;53.626;55.886;2023-04-25T04:58:58;74743.97;;;-145.10;28.67
56334;BME280;42240;53.626;55.886;2023-04-25T05:00:58;74825.00;;;-145.10;28.44
56334;BME280;42240;53.626;55.886;2023-04-25T05:02:49;74767.66;;;-145.10;28.41
56334;BME280;42240;53.626;55.886;2023-04-25T05:04:37;74688.63;;;-145.10;28.29
56334;BME280;42240;53.626;55.886;2023-04-25T05:06:31;74621.41;;;-145.10;27.70
56334;BME280;42240;53.626;55.886;2023-04-25T05:08:36;74694.53;;;-145.10;28.29
56334;BME280;42240;53.626;55.886;2023-04-25T05:10:19;74781.50;;;-145.10;28.23
56334;BME280;42240;53.626;55.886;2023-04-25T05:12:01;74761.75;;;-145.10;28.08
56334;BME280;42240;53.626;55.886;2023-04-25T05:13:56;74730.13;;;-145.10;28.08
56334;BME280;42240;53.626;55.886;2023-04-25T05:15:47;74734.06;;;-145.10;28.19
56334;BME280;42240;53.626;55.886;2023-04-25T05:17:50;74732.09;;;-145.10;28.08
56334;BME280;42240;53.626;55.886;2023-04-25T05:19:37;74502.84;;;-145.10;27.30
56334;BME280;42240;53.626;55.886;2023-04-25T05:21:39;74427.72;;;-145.10;27.23
56334;BME280;42240;53.626;55.886;2023-04-25T05:23:32;74368.44;;;-145.10;26.92
56334;BME280;42240;53.626;55.886;2023-04-25T05:25:16;74315.09;;;-145.10;26.08
56334;BME280;42240;53.626;55.886;2023-04-25T05:27:18;74287.41;;;-145.10;26.79
56334;BME280;42240;53.626;55.886;2023-04-25T05:29:12;74186.63;;;-145.10;25.62
56334;BME280;42240;53.626;55.886;2023-04-25T05:31:03;74271.59;;;-145.10;25.47
56334;BME280;42240;53.626;55.886;2023-04-25T05:32:48;74417.84;;;-145.10;26.43
56334;BME280;42240;53.626;55.886;2023-04-25T05:34:21;74417.84;;;-145.10;26.82
56334;BME280;42240;53.626;55.886;2023-04-25T05:35:59;74354.59;;;-145.10;25.47
56334;BME280;42240;53.626;55.886;2023-04-25T05:37:34;74324.97;;;-145.10;26.02
56334;BME280;42240;53.626;55.886;2023-04-25T05:39:16;74224.19;;;-145.10;26.00
56334;BME280;42240;53.626;55.886;2023-04-25T05:41:15;74496.91;;;-145.10;26.19
56334;BME280;42240;53.626;55.886;2023-04-25T05:43:02;74546.31;;;-145.10;26.34
56334;BME280;42240;53.626;55.886;2023-04-25T05:44:54;74554.22;;;-145.10;26.76
56334;BME280;42240;53.626;55.886;2023-04-25T05:46:43;74639.19;;;-145.10;26.90
56334;BME280;42240;53.626;55.886;2023-04-25T05:48:32;74558.16;;;-145.10;26.53
56334;BME280;42240;53.626;55.886;2023-04-25T05:50:22;74621.41;;;-145.10;26.86
56334;BME280;42240;53.626;55.886;2023-04-25T05:52:00;74619.44;;;-145.10;27.06
56334;BME280;42240;53.626;55.886;2023-04-25T05:53:36;74609.56;;;-145.10;26.84
56334;BME280;42240;53.626;55.886;2023-04-25T05:55:10;74552.25;;;-145.10;26.66
56334;BME280;42240;53.626;55.886;2023-04-25T05:56:44;74449.47;;;-145.10;26.49
56334;BME280;42240;53.626;55.886;2023-04-25T05:58:17;74465.28;;;-145.10;25.94
56334;BME280;42240;53.626;55.886;2023-04-25T05:59:50;74498.88;;;-145.10;26.49
56334;BME280;42240;53.626;55.886;2023-04-25T06:01:24;74467.25;;;-145.10;26.31
56334;BME280;42240;53.626;55.886;2023-04-25T06:02:58;74285.44;;;-145.10;26.34
56334;BME280;42240;53.626;55.886;2023-04-25T06:04:31;74307.19;;;-145.10;25.10
56334;BME280;42240;53.626;55.886;2023-04-25T06:06:05;74479.13;;;-145.10;25.81
56334;BME280;42240;53.626;55.886;2023-04-25T06:07:39;74593.75;;;-145.10;26.56
56334;BME280;42240;53.626;55.886;2023-04-25T06:09:12;74502.84;;;-145.10;26.25
56334;BME280;42240;53.626;55.886;2023-04-25T06:10:46;74467.25;;;-145.10;25.80
56334;BME280;42240;53.626;55.886;2023-04-25T06:12:19;74443.53;;;-145.10;25.89
56334;BME280;42240;53.626;55.886;2023-04-25T06:13:54;74398.09;;;-145.10;25.53
56334;BME280;42240;53.626;55.886;2023-04-25T06:15:27;74461.31;;;-145.10;25.73
56334;BME280;42240;53.626;55.886;2023-04-25T06:17:04;74445.50;;;-145.10;25.80
56334;BME280;42240;53.626;55.886;2023-04-25T06:18:41;74477.13;;;-145.10;26.37
56334;BME280;42240;53.626;55.886;2023-04-25T06:20:14;74492.94;;;-145.10;25.89
56334;BME280;42240;53.626;55.886;2023-04-25T06:21:47;74500.84;;;-145.10;26.13
56334;BME280;42240;53.626;55.886;2023-04-25T06:23:20;74605.59;;;-145.10;26.44
56334;BME280;42240;53.626;55.886;2023-04-25T06:24:58;74789.41;;;-145.10;27.33
56334;BME280;42240;53.626;55.886;2023-04-25T06:26:35;74759.75;;;-145.10;27.36
56334;BME280;42240;53.626;55.886;2023-04-25T06:28:08;74825.00;;;-145.10;27.87
56334;BME280;42240;53.626;55.886;2023-04-25T06:29:42;74817.09;;;-145.10;27.59
56334;BME280;42240;53.626;55.886;2023-04-25T06:31:15;74864.53;;;-145.10;27.99
56334;BME280;42240;53.626;55.886;2023-04-25T06:32:50;74840.81;;;-145.10;28.20
56334;BME280;42240;53.626;55.886;2023-04-25T06:34:25;74751.84;;;-145.10;27.70
56334;BME280;42240;53.626;55.886;2023-04-25T06:35:58;74884.28;;;-145.10;27.87
56334;BME280;42240;53.626;55.886;2023-04-25T06:37:33;74959.41;;;-145.10;28.39
56334;BME280;42240;53.626;55.886;2023-04-25T06:39:06;74836.84;;;-145.10;28.68
56334;BME280;42240;53.626;55.886;2023-04-25T06:40:40;74807.19;;;-145.10;27.97
56334;BME280;42240;53.626;55.886;2023-04-25T06:42:14;74799.28;;;-145.10;28.23
56334;BME280;42240;53.626;55.886;2023-04-25T06:43:56;74779.53;;;-145.10;27.60
56334;BME280;42240;53.626;55.886;2023-04-25T06:45:35;74716.28;;;-145.10;27.96
56334;BME280;42240;53.626;55.886;2023-04-25T06:47:08;74888.25;;;-145.10;27.57
56334;BME280;42240;53.626;55.886;2023-04-25T06:48:41;74971.25;;;-145.10;28.06
56334;BME280;42240;53.626;55.886;2023-04-25T06:50:15;74848.72;;;-145.10;28.23
56334;BME280;42240;53.626;55.886;2023-04-25T06:51:49;74726.16;;;-145.10;27.68
56334;BME280;42240;53.626;55.886;2023-04-25T06:53:22;74724.19;;;-145.10;27.24
56334;BME280;42240;53.626;55.886;2023-04-25T06:55:08;74765.69;;;-145.10;27.24
56334;BME280;42240;53.626;55.886;2023-04-25T06:57:08;74819.06;;;-145.10;27.71
56334;BME280;42240;53.626;55.886;2023-04-25T06:58:44;74858.59;;;-145.10;27.40
56334;BME280;42240;53.626;55.886;2023-04-25T07:00:28;74817.09;;;-145.10;27.44
56334;BME280;42240;53.626;55.886;2023-04-25T07:02:02;74860.56;;;-145.10;27.87
56334;BME280;42240;53.626;55.886;2023-04-25T07:03:39;74868.47;;;-145.10;27.45
56334;BME280;42240;53.626;55.886;2023-04-25T07:05:18;74896.16;;;-145.10;28.44
56334;BME280;42240;53.626;55.886;2023-04-25T07:06:51;74821.03;;;-145.10;28.15
56334;BME280;42240;53.626;55.886;2023-04-25T07:08:30;74828.94;;;-145.10;28.12
56334;BME280;42240;53.626;55.886;2023-04-25T07:10:04;74761.75;;;-145.10;27.58
56334;BME280;42240;53.626;55.886;2023-04-25T07:11:38;74716.28;;;-145.10;27.30
56334;BME280;42240;53.626;55.886;2023-04-25T07:13:11;74708.38;;;-145.10;27.28
56334;BME280;42240;53.626;55.886;2023-04-25T07:14:44;74702.44;;;-145.10;27.17
56334;BME280;42240;53.626;55.886;2023-04-25T07:16:17;74720.25;;;-145.10;27.34
56334;BME280;42240;53.626;55.886;2023-04-25T07:17:51;74825.00;;;-145.10;27.02
56334;BME280;42240;53.626;55.886;2023-04-25T07:19:27;75016.72;;;-145.10;28.03
56334;BME280;42240;53.626;55.886;2023-04-25T07:21:05;75022.66;;;-145.10;28.25
56334;BME280;42240;53.626;55.886;2023-04-25T07:22:39;75022.66;;;-145.10;28.37
56334;BME280;42240;53.626;55.886;2023-04-25T07:24:14;74939.63;;;-145.10;28.06
56334;BME280;42240;53.626;55.886;2023-04-25T07:25:50;75014.75;;;-145.10;28.26
56334;BME280;42240;53.626;55.886;2023-04-25T07:27:27;74967.31;;;-145.10;28.44
56334;BME280;42240;53.626;55.886;2023-04-25T07:29:06;74840.81;;;-145.10;28.30
56334;BME280;42240;53.626;55.886;2023-04-25T07:30:40;74779.53;;;-145.10;27.77
56334;BME280;42240;53.626;55.886;2023-04-25T07:32:14;74753.84;;;-145.10;27.54
56334;BME280;42240;53.626;55.886;2023-04-25T07:33:47;74884.28;;;-145.10;27.78
56334;BME280;42240;53.626;55.886;2023-04-25T07:35:23;74862.53;;;-145.10;28.00
56334;BME280;42240;53.626;55.886;2023-04-25T07:36:59;74832.91;;;-145.10;28.10
56334;BME280;42240;53.626;55.886;2023-04-25T07:38:52;74826.97;;;-145.10;27.60
56334;BME280;42240;53.626;55.886;2023-04-25T07:40:26;74834.88;;;-145.10;27.34
56334;BME280;42240;53.626;55.886;2023-04-25T07:42:07;74777.56;;;-145.10;27.58
56334;BME280;42240;53.626;55.886;2023-04-25T07:43:44;74840.81;;;-145.10;27.15
56334;BME280;42240;53.626;55.886;2023-04-25T07:45:18;74834.88;;;-145.10;27.56
56334;BME280;42240;53.626;55.886;2023-04-25T07:46:51;74834.88;;;-145.10;26.96
56334;BME280;42240;53.626;55.886;2023-04-25T07:48:24;74836.84;;;-145.10;27.51
56334;BME280;42240;53.626;55.886;2023-04-25T07:49:58;74872.44;;;-145.10;27.05
56334;BME280;42240;53.626;55.886;2023-04-25T07:51:31;74876.38;;;-145.10;27.48
56334;BME280;42240;53.626;55.886;2023-04-25T07:53:13;74832.91;;;-145.10;27.39
56334;BME280;42240;53.626;55.886;2023-04-25T07:54:57;74876.38;;;-145.10;27.94
56334;BME280;42240;53.626;55.886;2023-04-25T07:56:39;74890.22;;;-145.10;27.90
56334;BME280;42240;53.626;55.886;2023-04-25T07:58:24;74963.34;;;-145.10;28.38
56334;BME280;42240;53.626;55.886;2023-04-25T08:00:04;74908.00;;;-145.10;28.13
56334;BME280;42240;53.626;55.886;2023-04-25T08:01:45;74915.91;;;-145.10;28.23
56334;BME280;42240;53.626;55.886;2023-04-25T08:03:21;74862.53;;;-145.10;27.60
56334;BME280;42240;53.626;55.886;2023-04-25T08:04:55;74781.50;;;-145.10;27.92
56334;BME280;42240;53.626;55.886;2023-04-25T08:06:32;74801.28;;;-145.10;27.24
56334;BME280;42240;53.626;55.886;2023-04-25T08:08:23;74815.09;;;-145.10;27.45
56334;BME280;42240;53.626;55.886;2023-04-25T08:09:56;74842.78;;;-145.10;27.58
56334;BME280;42240;53.626;55.886;2023-04-25T08:11:36;74925.78;;;-145.10;27.86
56334;BME280;42240;53.626;55.886;2023-04-25T08:13:09;74860.56;;;-145.10;28.31
56334;BME280;42240;53.626;55.886;2023-04-25T08:14:42;74860.56;;;-145.10;27.63
56334;BME280;42240;53.626;55.886;2023-04-25T08:16:16;74809.19;;;-145.10;28.22